Time;durP1;ratioP1;P1;durP2;ratioP2;P2;SDS_P1;SDS_P2;PMS_P1;PMS_P2;Temp;Humidity;BMP_temperature;BMP_pressure;BME280_temperature;BME280_humidity;BME280_pressure;Samples;Min_cycle;Max_cycle;Signal;HPM_P1;HPM_P2
2021/05/08 00:01:50;;;;;;;1.00;0.73;;;;;;;9.02;31.73;92571.28;5010505;28;20034;-75
2021/05/08 00:04:16;;;;;;;1.02;0.70;;;;;;;8.89;31.82;92564.84;5009790;28;20531;-75
2021/05/08 00:06:42;;;;;;;0.85;0.70;;;;;;;8.89;31.94;92575.31;5004391;28;20045;-75
2021/05/08 00:09:07;;;;;;;0.70;0.63;;;;;;;8.85;31.99;92577.69;4997949;28;20042;-75
2021/05/08 00:11:35;;;;;;;0.70;0.68;;;;;;;8.96;30.85;92580.97;4990705;28;20490;-75
2021/05/08 00:14:01;;;;;;;2.00;0.57;;;;;;;8.92;32.10;92591.22;4990608;28;20038;-75
2021/05/08 00:16:26;;;;;;;0.70;0.57;;;;;;;8.86;32.03;92581.84;5008256;28;20072;-75
2021/05/08 00:18:52;;;;;;;0.88;0.63;;;;;;;8.90;32.10;92589.94;4986375;28;20086;-75
2021/05/08 00:21:18;;;;;;;0.57;0.57;;;;;;;8.89;31.56;92589.16;5002439;28;20041;-75
2021/05/08 00:23:44;;;;;;;1.08;0.60;;;;;;;8.92;31.21;92591.22;4996106;28;20053;-75
2021/05/08 00:26:09;;;;;;;1.65;0.70;;;;;;;8.90;31.40;92595.91;4989895;28;20124;-75
2021/05/08 00:28:35;;;;;;;1.85;0.60;;;;;;;8.95;31.14;92587.28;4992753;28;20038;-75
2021/05/08 00:31:01;;;;;;;0.77;0.70;;;;;;;8.96;31.44;92584.41;5009988;28;20353;-75
2021/05/08 00:33:27;;;;;;;0.98;0.73;;;;;;;8.92;31.66;92583.38;5001206;28;20042;-75
2021/05/08 00:35:52;;;;;;;1.83;0.70;;;;;;;8.94;31.39;92591.72;5005283;28;20064;-75
2021/05/08 00:38:18;;;;;;;1.20;0.70;;;;;;;8.91;31.43;92589.63;4998854;28;20381;-75
2021/05/08 00:40:44;;;;;;;1.13;0.60;;;;;;;8.91;31.73;92592.25;4989182;28;20113;-75
2021/05/08 00:43:10;;;;;;;0.60;0.60;;;;;;;8.95;31.67;92598.50;4989171;28;20034;-75
2021/05/08 00:45:35;;;;;;;0.70;0.55;;;;;;;8.94;31.50;92596.94;4990189;28;20034;-75
2021/05/08 00:48:11;;;;;;;0.55;0.52;;;;;;;8.93;31.40;92595.38;4973891;28;20041;-75
2021/05/08 00:50:37;;;;;;;0.85;0.70;;;;;;;8.94;31.11;92594.34;5009490;28;20037;-75
2021/05/08 00:53:07;;;;;;;0.73;0.70;;;;;;;8.95;30.99;92593.25;5007646;28;20072;-75
2021/05/08 00:55:38;;;;;;;1.42;0.60;;;;;;;8.93;31.32;92599.81;5008926;28;20253;-75
2021/05/08 00:58:08;;;;;;;0.70;0.70;;;;;;;8.91;31.52;92604.53;5011909;28;20037;-75
2021/05/08 01:00:35;;;;;;;0.70;0.70;;;;;;;8.88;31.68;92607.69;4992971;28;20136;-75
2021/05/08 01:03:02;;;;;;;0.52;0.52;;;;;;;8.78;32.13;92605.94;5006983;28;20045;-75
2021/05/08 01:05:32;;;;;;;0.60;0.60;;;;;;;8.73;32.91;92608.56;4995429;28;20403;-75
2021/05/08 01:08:03;;;;;;;1.13;0.70;;;;;;;8.71;31.77;92608.06;4999367;28;20030;-75
2021/05/08 01:10:30;;;;;;;0.75;0.50;;;;;;;8.71;31.89;92608.06;5010813;28;20041;-75
2021/05/08 01:12:58;;;;;;;0.80;0.63;;;;;;;8.72;31.95;92604.41;5011956;28;20033;-75
2021/05/08 01:15:24;;;;;;;1.58;0.70;;;;;;;8.69;32.23;92603.13;4994664;28;20088;-75
2021/05/08 01:17:51;;;;;;;0.60;0.60;;;;;;;8.64;31.92;92600.53;5012371;28;20030;-75
2021/05/08 01:20:17;;;;;;;0.70;0.52;;;;;;;8.66;31.66;92608.09;4995203;28;20041;-75
2021/05/08 01:22:49;;;;;;;0.40;0.40;;;;;;;8.67;31.50;92610.44;4988382;28;20034;-75
2021/05/08 01:25:18;;;;;;;1.35;0.70;;;;;;;8.68;31.72;92603.38;5012616;28;20087;-75
2021/05/08 01:27:49;;;;;;;1.33;0.70;;;;;;;8.65;32.03;92599.50;4999292;28;20037;-75
2021/05/08 01:30:18;;;;;;;0.40;0.40;;;;;;;8.63;32.12;92611.25;5011643;28;20511;-75
2021/05/08 01:32:45;;;;;;;0.82;0.57;;;;;;;8.57;32.06;92605.28;4992049;28;20038;-75
2021/05/08 01:35:11;;;;;;;0.85;0.70;;;;;;;8.54;31.99;92617.03;4989222;28;20053;-75
2021/05/08 01:37:37;;;;;;;0.75;0.65;;;;;;;8.47;32.71;92619.16;4990550;28;20034;-75
2021/05/08 01:40:11;;;;;;;0.65;0.55;;;;;;;8.39;33.52;92618.91;4991936;28;20093;-75
2021/05/08 01:42:39;;;;;;;1.35;0.82;;;;;;;8.27;34.11;92621.84;4976235;28;20042;-75
2021/05/08 01:45:14;;;;;;;1.95;0.60;;;;;;;8.12;34.81;92636.50;4991453;28;20475;-75
2021/05/08 01:47:41;;;;;;;0.75;0.63;;;;;;;8.05;35.35;92646.44;4993099;28;20440;-75
2021/05/08 01:50:12;;;;;;;0.75;0.60;;;;;;;7.93;36.54;92657.16;4984005;28;20035;-75
2021/05/08 01:52:39;;;;;;;1.23;0.80;;;;;;;7.98;34.10;92658.97;4987380;28;20030;-75
2021/05/08 01:55:25;;;;;;;0.68;0.55;;;;;;;8.12;34.53;92667.78;4973162;28;20114;-75
2021/05/08 01:57:53;;;;;;;1.05;0.63;;;;;;;8.00;34.63;92677.75;4976719;28;20031;-75
2021/05/08 02:00:24;;;;;;;1.35;0.75;;;;;;;7.88;35.28;92683.25;4985912;28;20115;-75
2021/05/08 02:02:52;;;;;;;0.88;0.70;;;;;;;7.77;36.06;92697.34;4975501;28;20370;-75
2021/05/08 02:05:27;;;;;;;1.73;0.73;;;;;;;7.80;35.02;92701.25;4990089;28;20499;-75
2021/05/08 02:07:55;;;;;;;3.03;0.88;;;;;;;7.71;36.19;92701.75;4980437;28;20035;-75
2021/05/08 02:10:21;;;;;;;1.40;0.60;;;;;;;7.64;36.53;92706.47;4992186;28;20046;-75
2021/05/08 02:12:48;;;;;;;0.75;0.57;;;;;;;7.55;37.61;92708.03;4990964;28;20038;-75
2021/05/08 02:15:16;;;;;;;1.08;0.70;;;;;;;7.47;38.30;92716.38;4991030;28;20061;-75
2021/05/08 02:17:42;;;;;;;0.50;0.50;;;;;;;7.38;39.42;92723.13;4978402;28;20466;-75
2021/05/08 02:20:13;;;;;;;1.00;0.65;;;;;;;7.27;41.05;92720.53;4971766;28;20049;-75
2021/05/08 02:22:40;;;;;;;0.85;0.65;;;;;;;7.18;40.69;92729.09;4990851;28;20038;-75
2021/05/08 02:25:08;;;;;;;0.65;0.65;;;;;;;7.08;41.83;92735.09;4972046;28;20033;-75
2021/05/08 02:27:34;;;;;;;0.65;0.60;;;;;;;6.99;42.41;92747.03;4981547;28;20043;-75
2021/05/08 02:30:00;;;;;;;0.93;0.70;;;;;;;6.90;43.16;92746.00;4990846;28;20500;-75
2021/05/08 02:32:26;;;;;;;1.60;0.93;;;;;;;6.81;43.72;92754.28;4991552;28;20046;-75
2021/05/08 02:34:52;;;;;;;1.17;0.60;;;;;;;6.73;44.13;92764.41;4992637;28;20085;-75
2021/05/08 02:37:18;;;;;;;3.15;0.75;;;;;;;6.63;44.00;92757.34;5005827;28;20041;-75
2021/05/08 02:39:45;;;;;;;0.50;0.50;;;;;;;6.62;43.15;92763.56;4990153;28;20042;-75
2021/05/08 02:42:11;;;;;;;0.82;0.57;;;;;;;6.64;42.23;92759.69;4991489;28;20042;-75
2021/05/08 02:44:36;;;;;;;1.15;0.70;;;;;;;6.69;42.00;92753.72;5009681;28;20060;-75
2021/05/08 02:47:02;;;;;;;0.63;0.60;;;;;;;6.75;42.13;92746.72;4987717;28;20041;-75
2021/05/08 02:49:28;;;;;;;0.80;0.60;;;;;;;6.74;43.34;92751.13;4993716;28;20038;-75
2021/05/08 02:51:54;;;;;;;1.05;0.70;;;;;;;6.68;43.87;92750.31;5007546;28;20572;-75
2021/05/08 02:54:20;;;;;;;1.77;0.60;;;;;;;6.58;43.93;92752.91;5009428;28;20034;-75
2021/05/08 02:56:46;;;;;;;1.75;0.80;;;;;;;6.56;44.41;92765.38;5006774;28;20076;-75
2021/05/08 02:59:11;;;;;;;0.70;0.55;;;;;;;6.47;44.55;92757.28;5009608;28;20037;-75
2021/05/08 03:01:37;;;;;;;0.90;0.70;;;;;;;6.42;45.12;92764.28;5011153;28;20048;-75
2021/05/08 03:04:03;;;;;;;1.10;0.70;;;;;;;6.35;45.76;92759.31;5006738;28;20042;-75
2021/05/08 03:06:29;;;;;;;1.73;0.70;;;;;;;6.27;45.49;92757.19;5007541;28;20033;-75
2021/05/08 03:08:55;;;;;;;1.75;0.80;;;;;;;6.23;45.29;92763.91;4990724;28;20041;-75
2021/05/08 03:11:21;;;;;;;0.90;0.70;;;;;;;6.18;45.42;92769.09;5005163;28;20408;-75
2021/05/08 03:13:48;;;;;;;1.73;0.70;;;;;;;6.15;45.37;92769.63;5009518;28;20088;-75
2021/05/08 03:16:14;;;;;;;1.63;0.70;;;;;;;6.16;44.95;92778.97;4982642;28;20449;-75
2021/05/08 03:18:41;;;;;;;1.25;0.70;;;;;;;6.17;45.10;92770.91;5003073;28;20037;-74
2021/05/08 03:21:07;;;;;;;0.95;0.63;;;;;;;6.17;44.97;92768.31;4989526;28;20042;-75
2021/05/08 03:23:33;;;;;;;0.73;0.50;;;;;;;6.17;45.02;92764.91;5008451;28;20038;-74
2021/05/08 03:26:00;;;;;;;1.05;0.80;;;;;;;6.21;44.27;92771.19;5010334;28;20041;-75
2021/05/08 03:28:26;;;;;;;0.63;0.50;;;;;;;6.22;44.15;92773.53;5005553;28;20030;-75
2021/05/08 03:30:51;;;;;;;0.60;0.60;;;;;;;6.21;45.42;92787.59;4991113;28;20057;-75
2021/05/08 03:33:17;;;;;;;0.60;0.50;;;;;;;6.14;45.55;92796.63;4991772;28;20038;-75
2021/05/08 03:35:43;;;;;;;0.50;0.50;;;;;;;6.07;45.79;92799.44;5008349;28;20184;-75
2021/05/08 03:38:09;;;;;;;0.93;0.60;;;;;;;6.01;45.92;92801.22;5022660;28;20038;-75
2021/05/08 03:40:35;;;;;;;0.98;0.52;;;;;;;5.95;46.39;92798.84;5005244;28;20045;-75
2021/05/08 03:43:01;;;;;;;0.82;0.80;;;;;;;5.89;46.62;92795.38;5006655;28;20041;-75
2021/05/08 03:45:27;;;;;;;1.98;0.80;;;;;;;5.87;46.06;92800.06;5009231;28;20491;-75
2021/05/08 03:47:52;;;;;;;0.60;0.60;;;;;;;5.88;45.82;92800.81;5010424;28;20042;-75
2021/05/08 03:50:18;;;;;;;0.85;0.60;;;;;;;5.87;46.03;92805.25;5009672;28;20036;-75
2021/05/08 03:52:44;;;;;;;1.10;0.73;;;;;;;5.84;46.11;92803.16;4991709;28;20184;-75
2021/05/08 03:55:10;;;;;;;0.60;0.60;;;;;;;5.81;46.05;92801.84;5009055;28;20050;-75
2021/05/08 03:57:36;;;;;;;0.70;0.55;;;;;;;5.79;46.39;92809.09;4992537;28;20037;-75
2021/05/08 04:00:03;;;;;;;0.90;0.65;;;;;;;5.78;46.80;92806.75;4992078;28;20046;-75
2021/05/08 04:02:39;;;;;;;0.82;0.70;;;;;;;5.77;47.15;92805.19;5004359;28;20038;-74
2021/05/08 04:05:05;;;;;;;1.50;0.60;;;;;;;5.78;46.48;92804.91;4973119;28;20393;-74
2021/05/08 04:07:30;;;;;;;1.10;0.60;;;;;;;5.80;46.56;92809.88;4998228;28;20113;-75
2021/05/08 04:09:56;;;;;;;1.95;0.90;;;;;;;5.82;46.34;92815.59;4996264;28;20066;-74
2021/05/08 04:12:22;;;;;;;1.13;0.80;;;;;;;5.83;46.21;92820.56;4995525;28;20037;-75
2021/05/08 04:14:47;;;;;;;3.08;1.63;;;;;;;5.86;46.20;92824.47;4972991;28;20077;-75
2021/05/08 04:17:13;;;;;;;3.78;1.83;;;;;;;5.87;46.00;92823.44;4990741;28;20709;-75
2021/05/08 04:19:39;;;;;;;3.22;1.33;;;;;;;5.93;45.74;92832.06;4997430;28;20088;-76
2021/05/08 04:22:04;;;;;;;1.35;0.88;;;;;;;5.99;45.63;92833.69;5001284;28;20511;-77
2021/05/08 04:24:30;;;;;;;1.77;0.90;;;;;;;6.03;45.75;92840.75;5004073;28;20049;-76
2021/05/08 04:26:55;;;;;;;0.90;0.70;;;;;;;6.09;45.48;92848.59;4998063;28;20565;-76
2021/05/08 04:29:21;;;;;;;1.52;0.80;;;;;;;6.13;45.79;92847.84;4998365;28;20046;-75
2021/05/08 04:31:47;;;;;;;0.65;0.52;;;;;;;6.23;46.52;92854.91;5003951;28;20038;-76
2021/05/08 04:34:13;;;;;;;1.98;0.80;;;;;;;6.27;46.87;92858.59;5004855;28;20457;-76
2021/05/08 04:36:38;;;;;;;1.20;0.50;;;;;;;6.35;46.29;92865.13;4991702;28;20054;-76
2021/05/08 04:39:04;;;;;;;3.72;0.80;;;;;;;6.42;45.77;92870.91;5003608;28;20129;-76
2021/05/08 04:41:30;;;;;;;0.90;0.70;;;;;;;6.46;46.16;92872.75;5004534;28;20034;-76
2021/05/08 04:43:55;;;;;;;1.77;0.82;;;;;;;6.54;46.14;92875.91;5001694;28;20033;-76
2021/05/08 04:46:24;;;;;;;0.80;0.70;;;;;;;6.59;46.57;92879.31;5002013;28;20034;-76
2021/05/08 04:48:54;;;;;;;1.00;0.77;;;;;;;6.66;46.55;92887.72;5002477;28;20407;-76
2021/05/08 04:51:21;;;;;;;0.77;0.60;;;;;;;6.73;46.35;92884.06;5003081;28;20041;-76
2021/05/08 04:53:50;;;;;;;0.90;0.63;;;;;;;6.81;45.30;92889.59;5005920;28;20114;-76
2021/05/08 04:56:16;;;;;;;1.85;0.82;;;;;;;6.90;44.63;92891.72;4996951;28;20396;-76
2021/05/08 04:58:43;;;;;;;1.25;0.70;;;;;;;7.00;44.44;92899.56;5009486;28;20038;-76
2021/05/08 05:01:10;;;;;;;0.65;0.52;;;;;;;7.02;45.55;92893.06;5010363;28;20037;-76
2021/05/08 05:03:36;;;;;;;1.05;0.77;;;;;;;7.07;45.90;92905.34;4999485;28;20045;-76
2021/05/08 05:06:03;;;;;;;1.35;0.73;;;;;;;7.14;46.02;92915.50;5009344;28;20042;-76
2021/05/08 05:08:28;;;;;;;1.10;0.70;;;;;;;7.21;45.44;92908.25;4993639;28;20104;-76
2021/05/08 05:10:55;;;;;;;0.85;0.50;;;;;;;7.27;45.21;92913.25;5010184;28;20037;-76
2021/05/08 05:13:22;;;;;;;1.73;0.75;;;;;;;7.37;45.48;92909.09;4998008;28;20041;-76
2021/05/08 05:15:48;;;;;;;1.40;0.82;;;;;;;7.47;45.21;92924.75;5001273;28;20041;-76
2021/05/08 05:18:14;;;;;;;1.75;0.60;;;;;;;7.58;44.68;92922.97;5005159;28;20132;-76
2021/05/08 05:20:40;;;;;;;0.93;0.70;;;;;;;7.68;44.64;92928.22;4996838;28;20117;-76
2021/05/08 05:23:06;;;;;;;1.30;0.90;;;;;;;7.78;44.93;92930.84;5007446;28;20041;-76
2021/05/08 05:25:32;;;;;;;0.68;0.68;;;;;;;7.93;44.42;92933.47;4994841;28;20037;-76
2021/05/08 05:27:58;;;;;;;0.93;0.80;;;;;;;8.05;44.28;92941.03;4994498;28;20041;-76
2021/05/08 05:30:23;;;;;;;0.85;0.77;;;;;;;8.23;44.13;92944.19;5010936;28;20136;-76
2021/05/08 05:32:49;;;;;;;0.90;0.60;;;;;;;8.35;43.97;92944.72;5012333;28;20030;-76
2021/05/08 05:35:15;;;;;;;0.68;0.68;;;;;;;8.51;43.88;92941.13;4991169;28;20427;-76
2021/05/08 05:37:41;;;;;;;2.50;0.70;;;;;;;8.72;42.94;92941.88;5012264;28;20037;-76
2021/05/08 05:40:13;;;;;;;0.98;0.43;;;;;;;8.90;42.83;92945.75;4998125;28;20058;-76
2021/05/08 05:42:43;;;;;;;1.20;0.70;;;;;;;9.09;41.39;92953.81;4984481;28;20092;-78
2021/05/08 05:45:09;;;;;;;1.52;0.95;;;;;;;9.33;42.10;92951.41;5008693;28;20042;-76
2021/05/08 05:47:35;;;;;;;0.68;0.60;;;;;;;9.60;40.41;92955.50;5002553;28;20450;-76
2021/05/08 05:50:03;;;;;;;1.55;0.70;;;;;;;9.82;41.84;92957.75;4999647;28;20041;-75
2021/05/08 05:52:29;;;;;;;0.88;0.73;;;;;;;10.05;41.68;92952.91;5003665;28;20391;-76
2021/05/08 05:54:54;;;;;;;1.20;0.65;;;;;;;10.20;41.24;92961.44;5013008;28;20025;-76
2021/05/08 05:57:20;;;;;;;1.05;0.77;;;;;;;10.40;40.86;92957.16;5010816;28;20484;-75
2021/05/08 05:59:49;;;;;;;1.85;0.82;;;;;;;11.13;38.20;92952.88;5013250;28;20033;-77
2021/05/08 06:02:18;;;;;;;1.52;1.02;;;;;;;13.83;33.07;92952.53;5012908;28;20044;-78
2021/05/08 06:04:45;;;;;;;2.58;1.10;;;;;;;16.20;28.64;92958.91;5012006;28;20399;-78
2021/05/08 06:07:15;;;;;;;2.28;1.20;;;;;;;18.36;26.06;92944.66;4994609;28;20046;-78
2021/05/08 06:09:47;;;;;;;2.67;1.20;;;;;;;19.95;23.71;92952.31;4976138;28;20038;-78
2021/05/08 06:12:13;;;;;;;1.45;0.98;;;;;;;19.41;23.98;92963.06;5008658;28;20038;-79
2021/05/08 06:14:38;;;;;;;1.27;0.95;;;;;;;20.31;23.29;92964.78;5006108;28;20393;-80
2021/05/08 06:17:04;;;;;;;5.18;0.98;;;;;;;19.09;24.70;92968.88;4997543;28;20038;-80
2021/05/08 06:19:30;;;;;;;1.85;1.10;;;;;;;19.73;25.26;92967.56;5008347;28;20031;-78
2021/05/08 06:21:55;;;;;;;2.25;1.10;;;;;;;21.21;24.23;92970.72;5006023;28;20117;-79
2021/05/08 06:24:21;;;;;;;1.52;1.00;;;;;;;21.38;23.53;92974.97;5008248;28;20513;-78
2021/05/08 06:26:47;;;;;;;5.32;1.23;;;;;;;21.67;23.89;92973.03;4995933;28;20703;-80
2021/05/08 06:29:12;;;;;;;1.23;1.00;;;;;;;20.17;25.24;92967.81;5010630;28;20088;-79
2021/05/08 06:31:38;;;;;;;1.98;1.17;;;;;;;20.81;24.10;92972.69;5005637;28;20041;-78
2021/05/08 06:34:04;;;;;;;2.15;1.17;;;;;;;21.73;23.84;92973.56;5006411;28;20038;-78
2021/05/08 06:36:30;;;;;;;1.40;0.98;;;;;;;21.09;23.93;92983.31;5005879;28;20141;-77
2021/05/08 06:38:55;;;;;;;1.10;0.90;;;;;;;21.55;23.63;92979.22;5002598;28;20037;-77
2021/05/08 06:41:21;;;;;;;2.95;1.20;;;;;;;22.56;23.08;92977.03;5010356;28;20503;-78
2021/05/08 06:43:46;;;;;;;1.48;0.90;;;;;;;18.72;27.38;92986.47;5010862;28;20046;-78
2021/05/08 06:46:12;;;;;;;1.75;0.90;;;;;;;18.08;28.92;92988.31;4988210;28;20041;-79
2021/05/08 06:48:38;;;;;;;1.77;0.80;;;;;;;17.56;30.20;92985.88;5006596;28;20131;-78
2021/05/08 06:51:07;;;;;;;2.17;1.02;;;;;;;16.49;30.76;92987.38;4983596;28;20041;-79
2021/05/08 06:53:35;;;;;;;2.60;1.15;;;;;;;15.82;32.11;92980.56;5004177;28;20048;-79
2021/05/08 06:56:02;;;;;;;2.17;1.15;;;;;;;16.04;33.15;92982.34;5007267;28;20021;-78
2021/05/08 06:58:28;;;;;;;1.45;0.90;;;;;;;14.33;34.77;92993.88;4988562;28;20049;-79
2021/05/08 07:00:55;;;;;;;3.25;1.20;;;;;;;13.83;37.22;92996.50;4990172;28;20100;-80
2021/05/08 07:03:21;;;;;;;5.95;1.00;;;;;;;12.91;39.00;93004.13;4994589;28;20421;-79
2021/05/08 07:05:49;;;;;;;1.38;1.00;;;;;;;12.93;38.49;92990.72;5004592;28;20136;-79
2021/05/08 07:08:16;;;;;;;1.77;1.00;;;;;;;12.77;39.48;93003.31;5011555;28;20034;-79
2021/05/08 07:10:47;;;;;;;2.05;1.15;;;;;;;13.25;39.62;93003.03;4972715;28;20050;-80
2021/05/08 07:13:14;;;;;;;2.38;1.20;;;;;;;13.49;38.25;92985.28;5009819;28;20400;-80
2021/05/08 07:15:40;;;;;;;1.40;0.90;;;;;;;14.25;38.50;92994.56;4990161;28;20034;-80
2021/05/08 07:18:09;;;;;;;1.08;0.77;;;;;;;13.45;37.95;93005.34;4989136;28;20045;-78
2021/05/08 07:20:37;;;;;;;1.73;1.00;;;;;;;13.82;37.18;92966.75;5007424;28;20299;-78
2021/05/08 07:23:05;;;;;;;1.63;0.93;;;;;;;13.41;38.28;92985.94;5013881;28;20515;-79
2021/05/08 07:25:32;;;;;;;1.23;1.00;;;;;;;13.57;37.33;92990.94;4989566;28;20041;-80
2021/05/08 07:28:11;;;;;;;2.35;1.00;;;;;;;13.36;38.33;92996.56;5002916;28;20034;-80
2021/05/08 07:30:46;;;;;;;1.45;0.80;;;;;;;13.95;37.87;92986.25;5018366;28;20037;-80
2021/05/08 07:33:13;;;;;;;;;;;;;;;14.45;36.59;92991.50;5002925;28;20029;-79
2021/05/08 07:35:40;;;;;;;2.33;0.90;;;;;;;13.44;37.09;92982.75;5005014;28;19921;-80
2021/05/08 07:38:07;;;;;;;1.73;0.90;;;;;;;13.74;36.57;92997.19;4992341;28;20507;-79
2021/05/08 07:40:34;;;;;;;1.10;0.80;;;;;;;13.77;36.18;93002.94;5010543;28;20026;-79
2021/05/08 07:43:04;;;;;;;1.50;0.90;;;;;;;13.67;36.66;93002.06;5009961;28;20091;-79
2021/05/08 07:45:30;;;;;;;1.83;0.98;;;;;;;13.26;37.29;93015.09;5010005;28;20070;-80
2021/05/08 07:47:57;;;;;;;1.40;0.98;;;;;;;12.92;38.75;92997.78;4987429;28;20037;-79
2021/05/08 07:50:27;;;;;;;1.15;0.88;;;;;;;12.93;38.26;93027.50;4990508;28;20129;-78
2021/05/08 07:52:54;;;;;;;2.65;0.93;;;;;;;12.96;39.23;93035.56;4991441;28;20030;-79
2021/05/08 07:55:23;;;;;;;0.60;0.60;;;;;;;13.43;39.19;93025.88;5012031;28;20045;-79
2021/05/08 07:58:09;;;;;;;4.25;1.65;;;;;;;14.12;37.43;93033.81;5004480;28;20089;-78
2021/05/08 08:00:35;;;;;;;12.15;2.97;;;;;;;14.36;37.77;93032.78;4970822;28;20400;-78
2021/05/08 08:03:01;;;;;;;2.13;0.82;;;;;;;14.19;35.61;93041.31;4997573;28;20038;-78
2021/05/08 08:05:28;;;;;;;1.65;0.90;;;;;;;14.50;34.54;93038.81;4974009;28;20046;-78
2021/05/08 08:07:53;;;;;;;1.38;0.93;;;;;;;14.30;35.28;93031.34;5011166;28;20488;-78
2021/05/08 08:10:19;;;;;;;2.78;0.80;;;;;;;14.70;35.93;93027.09;4994803;28;20041;-78
2021/05/08 08:12:44;;;;;;;2.28;0.65;;;;;;;14.07;38.05;93015.50;5010713;28;20030;-77
2021/05/08 08:15:12;;;;;;;1.02;0.73;;;;;;;13.79;38.88;93014.72;5012871;28;20045;-77
2021/05/08 08:17:38;;;;;;;3.38;1.10;;;;;;;13.82;39.17;93021.25;4987649;28;20034;-75
2021/05/08 08:20:10;;;;;;;0.95;0.80;;;;;;;13.39;37.94;93018.88;5004126;28;20031;-78
2021/05/08 08:22:37;;;;;;;1.52;1.00;;;;;;;13.54;39.94;93018.59;4999282;28;20164;-77
2021/05/08 08:25:08;;;;;;;1.15;0.85;;;;;;;13.66;38.81;93010.22;5012265;28;20141;-78
2021/05/08 08:27:35;;;;;;;1.90;0.88;;;;;;;13.35;39.90;93021.28;5015061;28;20030;-77
2021/05/08 08:30:01;;;;;;;1.02;0.80;;;;;;;12.92;42.32;93024.06;5012997;28;20026;-77
2021/05/08 08:32:26;;;;;;;3.47;0.90;;;;;;;13.68;40.43;93027.28;5015919;28;20038;-76
2021/05/08 08:35:13;;;;;;;1.40;0.95;;;;;;;14.35;36.71;93034.66;5011049;28;20065;-78
2021/05/08 08:37:38;;;;;;;1.83;0.80;;;;;;;12.89;39.80;93029.91;5012841;28;20073;-76
2021/05/08 08:40:05;;;;;;;1.13;0.70;;;;;;;12.74;39.30;93038.00;5002322;28;20135;-77
2021/05/08 08:42:53;;;;;;;1.25;0.60;;;;;;;12.78;37.89;93046.88;5002858;28;20034;-77
2021/05/08 08:45:18;;;;;;;2.10;0.82;;;;;;;12.79;39.26;93045.81;5002857;28;20040;-76
2021/05/08 08:51:06;;;;;;;1.85;1.02;;;;;;;14.14;37.08;93049.31;5002683;28;20080;-78
2021/05/08 08:53:32;;;;;;;4.93;1.85;;;;;;;14.67;37.18;93042.72;5016121;28;20392;-78
2021/05/08 08:56:20;;;;;;;1.13;0.75;;;;;;;15.06;36.65;93036.00;5013473;28;20077;-77
2021/05/08 08:58:53;;;;;;;1.23;0.80;;;;;;;14.32;37.17;93029.97;5016216;28;20492;-77
2021/05/08 09:01:20;;;;;;;5.05;1.45;;;;;;;14.81;38.18;93032.13;5009589;28;20038;-78
2021/05/08 09:03:46;;;;;;;1.38;0.70;;;;;;;13.74;38.46;93035.88;5004167;28;20045;-78
2021/05/08 09:06:12;;;;;;;1.80;0.95;;;;;;;13.44;39.68;93035.34;5011271;28;20109;-77
2021/05/08 09:08:56;;;;;;;0.70;0.70;;;;;;;13.91;39.18;93043.16;5012865;28;20081;-77
2021/05/08 09:11:24;;;;;;;1.00;0.80;;;;;;;13.88;38.78;93041.13;5015193;28;20041;-77
2021/05/08 09:14:15;;;;;;;1.15;0.85;;;;;;;13.69;39.43;93030.69;5006556;28;20030;-77
2021/05/08 09:17:01;;;;;;;0.85;0.73;;;;;;;14.00;41.46;93035.38;5027333;28;20049;-77
2021/05/08 09:19:26;;;;;;;1.42;0.65;;;;;;;13.60;39.89;93048.22;5004042;28;20049;-77
2021/05/08 09:21:52;;;;;;;1.02;0.80;;;;;;;13.17;39.17;93045.75;5000386;28;20704;-78
2021/05/08 09:24:18;;;;;;;2.05;0.80;;;;;;;13.45;39.16;93044.78;4999740;28;20037;-78
2021/05/08 09:26:48;;;;;;;1.95;0.82;;;;;;;13.39;39.25;93043.31;5003587;28;20415;-77
2021/05/08 09:29:24;;;;;;;1.58;0.90;;;;;;;13.67;40.36;93049.41;5007455;28;20474;-78
2021/05/08 09:31:57;;;;;;;2.53;1.05;;;;;;;14.22;41.03;93038.09;4993602;28;20100;-77
2021/05/08 09:34:24;;;;;;;2.63;0.90;;;;;;;14.05;39.29;93040.53;5007268;28;20033;-77
2021/05/08 09:36:55;;;;;;;0.80;0.80;;;;;;;13.83;39.44;93044.63;5011060;28;20385;-78
2021/05/08 09:39:28;;;;;;;1.27;0.95;;;;;;;14.50;38.71;93038.81;4995152;28;20176;-78
2021/05/08 09:41:54;;;;;;;1.63;0.80;;;;;;;14.62;38.50;93035.69;5010261;28;20092;-78
2021/05/08 09:44:20;;;;;;;0.88;0.73;;;;;;;14.77;37.94;93032.72;4999220;28;20018;-77
2021/05/08 09:46:45;;;;;;;1.15;0.80;;;;;;;14.40;39.29;93036.41;5004622;28;20038;-79
2021/05/08 09:49:16;;;;;;;1.67;0.80;;;;;;;13.74;40.83;93020.09;5009055;28;20104;-76
2021/05/08 09:51:42;;;;;;;1.10;0.85;;;;;;;13.52;40.05;93036.53;5004744;28;20578;-78
2021/05/08 09:54:17;;;;;;;1.48;0.80;;;;;;;13.64;41.06;93039.44;4999506;28;20034;-78
2021/05/08 09:56:47;;;;;;;2.78;0.90;;;;;;;14.19;40.92;93036.06;5003640;28;20039;-78
2021/05/08 09:59:36;;;;;;;1.17;0.90;;;;;;;13.89;38.87;93027.69;4991611;28;20037;-79
2021/05/08 10:02:01;;;;;;;1.83;0.90;;;;;;;13.47;40.89;93024.25;4996974;28;20133;-77
2021/05/08 10:04:57;;;;;;;1.73;0.90;;;;;;;12.92;41.92;93031.94;4993823;28;20432;-77
2021/05/08 10:07:30;;;;;;;2.17;1.23;;;;;;;12.91;42.36;93036.44;5002130;28;20516;-78
2021/05/08 10:09:58;;;;;;;1.42;0.90;;;;;;;12.89;42.69;93029.91;4999613;28;20042;-77
2021/05/08 10:12:25;;;;;;;4.35;1.08;;;;;;;13.05;43.05;93033.84;4999494;28;20030;-78
2021/05/08 10:14:53;;;;;;;1.85;0.70;;;;;;;13.42;42.25;93032.22;4994381;28;20112;-78
2021/05/08 10:17:20;;;;;;;1.15;0.85;;;;;;;13.08;43.09;93033.28;5004821;28;20077;-75
2021/05/08 10:19:49;;;;;;;2.28;0.90;;;;;;;13.03;43.10;93038.59;5007329;28;20041;-78
2021/05/08 10:22:15;;;;;;;1.85;1.00;;;;;;;12.68;44.08;93038.09;5004085;28;20034;-77
2021/05/08 10:24:43;;;;;;;1.42;0.90;;;;;;;12.66;43.27;93032.34;5003945;28;20042;-78
2021/05/08 10:27:10;;;;;;;1.65;0.80;;;;;;;12.85;43.27;93019.19;4999489;28;20029;-79
2021/05/08 10:29:47;;;;;;;1.15;0.90;;;;;;;12.76;44.05;93026.16;5001756;28;20128;-78
2021/05/08 10:32:17;;;;;;;1.40;1.00;;;;;;;13.04;42.82;93021.78;5018472;28;20061;-75
2021/05/08 10:34:51;;;;;;;1.55;1.00;;;;;;;13.36;44.65;93012.34;4981036;28;20068;-77
2021/05/08 10:37:17;;;;;;;1.38;0.82;;;;;;;13.54;42.00;93002.81;5004771;28;20053;-78
2021/05/08 10:39:55;;;;;;;3.28;1.40;;;;;;;13.45;42.09;93010.59;5003694;28;20062;-79
2021/05/08 10:42:46;;;;;;;5.40;1.15;;;;;;;13.89;42.85;92998.75;4998053;28;20137;-78
2021/05/08 10:45:11;;;;;;;1.52;1.08;;;;;;;13.69;42.28;93007.81;5005911;28;20124;-77
2021/05/08 10:47:52;;;;;;;2.40;0.80;;;;;;;13.66;41.43;92999.69;5003766;28;20705;-76
2021/05/08 10:50:24;;;;;;;0.88;0.80;;;;;;;14.52;41.58;93001.63;4997445;28;20037;-77
2021/05/08 10:53:01;;;;;;;1.40;0.97;;;;;;;14.75;38.57;93002.47;5000756;28;20488;-77
2021/05/08 10:55:29;;;;;;;2.33;1.10;;;;;;;14.38;40.52;93001.66;4997322;28;20116;-76
2021/05/08 10:58:13;;;;;;;2.08;1.05;;;;;;;14.17;41.93;92998.69;5007111;28;20033;-76
2021/05/08 11:00:45;;;;;;;2.45;1.08;;;;;;;13.92;41.85;93000.78;5017440;28;20126;-76
2021/05/08 11:03:12;;;;;;;3.40;1.30;;;;;;;13.96;42.15;93016.78;5001651;28;20510;-77
2021/05/08 11:05:49;;;;;;;1.20;0.80;;;;;;;13.77;42.21;92995.81;4993139;28;20093;-77
2021/05/08 11:08:27;;;;;;;2.20;1.30;;;;;;;13.91;40.55;92987.91;4993242;28;20049;-77
2021/05/08 11:11:01;;;;;;;1.90;1.15;;;;;;;14.21;42.11;92989.16;4998148;28;20704;-76
2021/05/08 11:13:43;;;;;;;1.02;0.90;;;;;;;13.97;41.17;92988.59;5004094;28;20034;-78
2021/05/08 11:16:15;;;;;;;2.03;1.10;;;;;;;13.67;42.12;92985.50;4995477;28;20033;-78
2021/05/08 11:18:45;;;;;;;1.88;1.02;;;;;;;14.28;42.97;92984.25;4993237;28;20412;-78
2021/05/08 11:21:11;;;;;;;2.45;1.10;;;;;;;14.90;42.59;92980.25;5009185;28;20046;-76
2021/05/08 11:23:46;;;;;;;2.00;1.08;;;;;;;14.68;41.13;92981.81;4997004;28;20033;-76
2021/05/08 11:26:24;;;;;;;1.33;0.85;;;;;;;14.53;41.71;92976.88;4999560;28;20500;-75
2021/05/08 11:29:19;;;;;;;1.90;0.95;;;;;;;14.79;41.38;92971.78;5000897;28;20029;-75
2021/05/08 11:31:47;;;;;;;2.15;1.00;;;;;;;14.59;40.59;92978.34;5001163;28;20133;-76
2021/05/08 11:36:53;;;;;;;1.33;1.00;;;;;;;14.38;41.81;92973.47;4988368;28;20520;-75
2021/05/08 11:39:23;;;;;;;3.28;0.90;;;;;;;14.20;38.60;92977.03;5002443;28;20402;-76
2021/05/08 11:42:00;;;;;;;1.45;0.80;;;;;;;13.71;39.81;92973.28;4965843;28;20121;-76
2021/05/08 11:44:27;;;;;;;1.48;0.77;;;;;;;13.76;37.51;92978.47;4986709;28;20070;-77
2021/05/08 11:46:55;;;;;;;1.05;0.70;;;;;;;14.01;37.18;92963.25;4987858;28;20034;-77
2021/05/08 11:49:29;;;;;;;1.40;0.90;;;;;;;14.30;37.65;92965.53;4990801;28;20038;-76
2021/05/08 11:51:56;;;;;;;3.25;1.00;;;;;;;14.35;39.34;92963.53;4981554;28;20050;-76